Saturday, August 18, 2018, 9:58 AM EDT
Back to Local

KUKT, Quakertown, Quakertown Airport

Location: Quakertown, PA, United States Lat: 40.435
Local Time: 9:58 AM EDT (13:58 GMT) Lon: -75.382
Time Zone: US/Eastern Elev: 524 ft

Show me the last for .
Show Decoded

2018-08-18 09:35 METAR KUKT 181335Z AUTO 23005KT 10SM CLR 25/23 A2989 RMK A01 =
2018-08-18 09:15 METAR KUKT 181315Z AUTO 22004KT 10SM CLR 24/23 A2990 RMK A01 =
2018-08-18 08:55 METAR KUKT 181255Z AUTO 00000KT 10SM CLR 24/23 A2990 RMK A01 =
2018-08-18 08:35 METAR KUKT 181235Z AUTO 00000KT 9SM FEW090 23/23 A2990 RMK A01 =
2018-08-18 08:15 METAR KUKT 181215Z AUTO 00000KT 7SM FEW100 23/23 A2991 RMK A01 =
2018-08-18 07:55 METAR KUKT 181155Z AUTO 00000KT 7SM FEW090 22/22 A2990 RMK A01 =
2018-08-18 07:35 METAR KUKT 181135Z AUTO 00000KT 6SM BR SCT090 22/22 A2990 RMK A01 =
2018-08-18 07:15 METAR KUKT 181115Z AUTO 00000KT 6SM BR FEW095 22/22 A2990 RMK A01 =
2018-08-18 06:55 METAR KUKT 181055Z AUTO 00000KT 5SM BR CLR 22/22 A2990 RMK A01 =
2018-08-18 06:35 METAR KUKT 181035Z AUTO 00000KT 6SM BR CLR 22/22 A2991 RMK A01 =
2018-08-18 06:15 METAR KUKT 181015Z AUTO 00000KT 6SM BR CLR 22/22 A2991 RMK A01 =
2018-08-18 05:55 METAR KUKT 180955Z AUTO 00000KT 7SM CLR 22/22 A2991 RMK A01 =
2018-08-18 05:35 METAR KUKT 180935Z AUTO 00000KT 10SM CLR 22/22 A2991 RMK A01 =
2018-08-18 05:15 METAR KUKT 180915Z AUTO 00000KT 7SM FEW050 FEW065 22/22 A2991 RMK A01 =
2018-08-18 04:55 METAR KUKT 180855Z AUTO 00000KT 10SM FEW048 FEW060 SCT065 22/22 A2992 RMK A01 =
2018-08-18 04:35 METAR KUKT 180835Z AUTO 00000KT 8SM FEW045 SCT050 SCT075 22/22 A2992 RMK A01 =
2018-08-18 04:15 METAR KUKT 180815Z AUTO 00000KT 9SM SCT050 SCT075 22/22 A2991 RMK A01 =
2018-08-18 03:55 METAR KUKT 180755Z AUTO 00000KT 9SM FEW046 22/22 A2992 RMK A01 =
2018-08-18 03:35 METAR KUKT 180735Z AUTO 00000KT 9SM BKN047 22/22 A2992 RMK A01 =
2018-08-18 03:15 METAR KUKT 180715Z AUTO 00000KT 10SM FEW047 22/22 A2992 RMK A01 =
2018-08-18 02:55 METAR KUKT 180655Z AUTO 00000KT 10SM CLR 22/22 A2993 RMK A01 =
2018-08-18 02:35 METAR KUKT 180635Z AUTO 00000KT 10SM FEW049 SCT055 SCT070 22/22 A2993 RMK A01 =
2018-08-18 02:15 METAR KUKT 180615Z AUTO 00000KT 10SM SCT055 BKN065 23/23 A2994 RMK A01 =
2018-08-18 01:55 METAR KUKT 180555Z AUTO 00000KT 10SM SCT055 BKN065 23/23 A2994 RMK A01 =
2018-08-18 01:35 METAR KUKT 180535Z AUTO 00000KT 10SM FEW055 22/23 A2995 RMK A01 =
2018-08-18 01:15 METAR KUKT 180515Z AUTO 00000KT 10SM FEW050 SCT060 22/22 A2996 RMK A01 =
2018-08-18 00:55 METAR KUKT 180455Z AUTO 00000KT 7SM FEW060 22/22 A2995 RMK A01 =
2018-08-18 00:35 METAR KUKT 180435Z AUTO 00000KT 7SM CLR 22/22 A2994 RMK A01 =
2018-08-18 00:15 METAR KUKT 180415Z AUTO 00000KT 6SM BR CLR 22/22 A2995 RMK A01 =
2018-08-17 23:55 METAR KUKT 180355Z AUTO 00000KT 9SM CLR 22/22 A2995 RMK A01 =
2018-08-17 23:35 METAR KUKT 180335Z AUTO 00000KT 9SM CLR 23/23 A2995 RMK A01 =
2018-08-17 23:15 METAR KUKT 180315Z AUTO 00000KT 10SM FEW022 23/23 A2996 RMK A01 =
2018-08-17 22:55 METAR KUKT 180255Z AUTO 00000KT 10SM SCT023 SCT032 23/23 A2996 RMK A01 =
2018-08-17 22:35 METAR KUKT 180235Z AUTO 00000KT 10SM SCT024 SCT034 BKN041 23/23 A2997 RMK A01 =
2018-08-17 22:15 METAR KUKT 180215Z AUTO 00000KT 10SM FEW024 SCT030 BKN046 23/23 A2997 RMK A01 =
2018-08-17 21:55 METAR KUKT 180155Z AUTO 00000KT 10SM FEW039 23/23 A2997 RMK A01 P0001 =
2018-08-17 21:35 METAR KUKT 180135Z AUTO 00000KT 10SM BKN039 23/23 A2997 RMK A01 =
2018-08-17 21:15 METAR KUKT 180115Z AUTO 00000KT 10SM SCT041 SCT047 23/23 A2997 RMK A01 =
2018-08-17 20:55 METAR KUKT 180055Z AUTO 00000KT 6SM BR FEW002 SCT040 BKN046 23/23 A2995 RMK A01
                 P0027 =
2018-08-17 20:35 METAR KUKT 180035Z AUTO VRB04G13KT 7SM SCT006 BKN043 OVC060 23/22 A2996 RMK A01
                 =
2018-08-17 20:15 METAR KUKT 180015Z AUTO 24009G20KT 1 1/2SM BR SCT004 BKN014 OVC041 23/22 A2998
                 RMK A01 =
2018-08-17 19:55 METAR KUKT 172355Z AUTO 26006G15KT 9SM FEW031 BKN041 BKN050 25/21 A2998 RMK A01
                 =
2018-08-17 19:35 METAR KUKT 172335Z AUTO 00000KT 10SM CLR 28/24 A2995 RMK A01 =
2018-08-17 19:15 METAR KUKT 172315Z AUTO 00000KT 10SM CLR 28/23 A2995 RMK A01 =
2018-08-17 18:55 METAR KUKT 172255Z AUTO 21005KT 10SM CLR 29/23 A2994 RMK A01 =
2018-08-17 18:35 METAR KUKT 172235Z AUTO 20006KT 10SM CLR 29/23 A2994 RMK A01 =
2018-08-17 18:15 METAR KUKT 172215Z AUTO 00000KT 10SM CLR 29/23 A2995 RMK A01 =
2018-08-17 17:55 METAR KUKT 172155Z AUTO 19005KT 10SM FEW038 FEW090 30/23 A2995 RMK A01 =
2018-08-17 17:35 METAR KUKT 172135Z AUTO 20006G11KT 10SM CLR 30/23 A2996 RMK A01 =
2018-08-17 17:15 METAR KUKT 172115Z AUTO 22009G15KT 10SM CLR 32/22 A2996 RMK A01 =
2018-08-17 16:55 METAR KUKT 172055Z AUTO 21010G15KT 10SM FEW044 FEW055 32/23 A2996 RMK A01 =
2018-08-17 16:35 METAR KUKT 172035Z AUTO 21010G16KT 10SM CLR 32/24 A2996 RMK A01 =
2018-08-17 16:15 METAR KUKT 172015Z AUTO 20007G16KT 10SM CLR 32/23 A2997 RMK A01 =
2018-08-17 15:55 METAR KUKT 171955Z AUTO 18009KT 10SM CLR 32/24 A2997 RMK A01 =
2018-08-17 15:35 METAR KUKT 171935Z AUTO VRB06KT 10SM FEW036 FEW042 SCT047 32/25 A2998 RMK A01 =
2018-08-17 15:15 METAR KUKT 171915Z AUTO 00000KT 10SM FEW042 SCT048 30/25 A2999 RMK A01 =
2018-08-17 14:55 METAR KUKT 171855Z AUTO 00000KT 6SM HZ FEW025 FEW034 SCT040 30/25 A3000 RMK A01
                 =
2018-08-17 14:35 METAR KUKT 171835Z AUTO 21009KT 10SM FEW033 31/24 A3001 RMK A01 =
2018-08-17 14:15 METAR KUKT 171815Z AUTO 18005G13KT 10SM FEW030 FEW060 31/24 A3001 RMK A01 =
2018-08-17 13:55 METAR KUKT 171755Z AUTO VRB05G11KT 10SM FEW028 FEW100 31/24 A3002 RMK A01 =
2018-08-17 13:35 METAR KUKT 171735Z AUTO 19006KT 10SM FEW025 FEW031 FEW100 31/25 A3003 RMK A01 =
2018-08-17 13:15 METAR KUKT 171715Z AUTO 19008KT 10SM FEW025 30/25 A3004 RMK A01 =
2018-08-17 12:55 METAR KUKT 171655Z AUTO 19005KT 10SM CLR 30/24 A3004 RMK A01 =
2018-08-17 12:35 METAR KUKT 171635Z AUTO 19004KT 10SM CLR 29/25 A3005 RMK A01 =
2018-08-17 12:15 METAR KUKT 171615Z AUTO VRB04KT 10SM CLR 29/24 A3006 RMK A01 =
2018-08-17 11:55 METAR KUKT 171555Z AUTO VRB06KT 10SM CLR 29/24 A3007 RMK A01 =
2018-08-17 11:35 METAR KUKT 171535Z AUTO 16004KT 10SM CLR 29/24 A3007 RMK A01 =
2018-08-17 11:15 METAR KUKT 171515Z AUTO 20004KT 10SM CLR 28/24 A3008 RMK A01 =
2018-08-17 10:55 METAR KUKT 171455Z AUTO 00000KT 10SM CLR 27/24 A3008 RMK A01 =
2018-08-17 10:35 METAR KUKT 171435Z AUTO 00000KT 10SM CLR 27/24 A3008 RMK A01 =
2018-08-17 10:15 METAR KUKT 171415Z AUTO 00000KT 9SM CLR 27/24 A3009 RMK A01 =

Support USWX by starting your Amazon purchase here.